createdAt,value
2022-11-16T00:02:18.713Z,1.96
2022-11-16T00:04:45.613Z,2.01
2022-11-16T00:07:12.359Z,2.18
2022-11-16T00:09:39.263Z,2.09
2022-11-16T00:12:08.811Z,2.24
2022-11-16T00:14:36.249Z,2.23
2022-11-16T00:17:04.254Z,2.31
2022-11-16T00:19:31.330Z,2.17
2022-11-16T00:21:58.322Z,2.14
2022-11-16T00:24:25.401Z,2.17
2022-11-16T00:26:54.626Z,1.90
2022-11-16T00:29:24.347Z,1.96
2022-11-16T00:31:51.274Z,2.07
2022-11-16T00:34:18.587Z,2.08
2022-11-16T00:36:45.974Z,2.09
2022-11-16T00:39:16.954Z,2.16
2022-11-16T00:41:44.841Z,2.15
2022-11-16T00:44:12.270Z,2.15
2022-11-16T00:46:38.958Z,2.09
2022-11-16T00:49:05.996Z,2.12
2022-11-16T00:51:33.979Z,1.92
2022-11-16T00:54:01.331Z,2.02
2022-11-16T00:56:28.062Z,2.08
2022-11-16T00:58:54.746Z,2.02
2022-11-16T01:01:21.810Z,2.00
2022-11-16T01:03:48.550Z,2.13
2022-11-16T01:06:16.475Z,2.19
2022-11-16T01:08:44.492Z,2.03
2022-11-16T01:11:33.037Z,1.87
2022-11-16T01:14:02.734Z,1.77
2022-11-16T01:16:29.661Z,1.85
2022-11-16T01:18:56.736Z,1.90
2022-11-16T01:21:24.246Z,1.93
2022-11-16T01:23:51.497Z,1.93
2022-11-16T01:26:18.495Z,1.81
2022-11-16T01:28:45.331Z,1.72
2022-11-16T01:31:12.386Z,1.68
2022-11-16T01:33:39.348Z,1.75
2022-11-16T01:36:17.365Z,1.79
2022-11-16T01:38:46.042Z,1.78
2022-11-16T01:41:21.411Z,1.72
2022-11-16T01:43:56.207Z,1.69
2022-11-16T01:46:23.930Z,1.69
2022-11-16T01:48:57.515Z,1.67
2022-11-16T01:51:25.263Z,1.65
2022-11-16T01:53:52.232Z,1.58
2022-11-16T01:56:19.423Z,1.57
2022-11-16T01:58:46.808Z,1.64
2022-11-16T02:01:13.548Z,1.57
2022-11-16T02:03:40.354Z,1.24
2022-11-16T02:06:32.383Z,1.42
2022-11-16T02:09:36.471Z,1.48
2022-11-16T02:12:16.984Z,1.29
2022-11-16T02:14:43.574Z,1.48
2022-11-16T02:17:47.630Z,1.38
2022-11-16T02:20:29.483Z,1.41
2022-11-16T02:23:28.866Z,1.35
2022-11-16T02:26:33.755Z,1.45
2022-11-16T02:29:00.389Z,1.51
2022-11-16T02:31:33.782Z,1.28
2022-11-16T02:34:01.946Z,1.47
2022-11-16T02:36:28.631Z,1.41
2022-11-16T02:39:02.994Z,1.43
2022-11-16T02:41:33.962Z,1.45
2022-11-16T02:44:06.478Z,1.16
2022-11-16T02:46:37.901Z,1.33
2022-11-16T02:49:10.536Z,1.29
2022-11-16T02:51:39.987Z,1.27
2022-11-16T02:54:14.923Z,1.29
2022-11-16T02:56:50.662Z,1.09
2022-11-16T02:59:17.850Z,1.07
2022-11-16T03:01:53.556Z,1.25
2022-11-16T03:04:42.219Z,1.30
2022-11-16T03:07:11.228Z,1.28
2022-11-16T03:09:41.341Z,1.25
2022-11-16T03:12:15.713Z,1.36
2022-11-16T03:14:48.698Z,1.15
2022-11-16T03:17:40.777Z,1.14
2022-11-16T03:20:15.839Z,1.10
2022-11-16T03:22:45.895Z,1.18
2022-11-16T03:25:16.494Z,1.07
2022-11-16T03:27:46.312Z,1.26
2022-11-16T03:30:23.204Z,1.10
2022-11-16T03:33:12.044Z,1.28
2022-11-16T03:36:03.794Z,1.20
2022-11-16T03:38:33.760Z,1.14
2022-11-16T03:41:04.136Z,1.18
2022-11-16T03:43:32.389Z,1.20
2022-11-16T03:45:59.297Z,0.98
2022-11-16T03:48:26.244Z,1.18
2022-11-16T03:50:53.241Z,0.95
2022-11-16T03:53:20.143Z,1.11
2022-11-16T03:55:49.977Z,1.18
2022-11-16T03:58:18.690Z,1.03
2022-11-16T04:00:47.601Z,0.66
2022-11-16T04:03:14.852Z,1.25
2022-11-16T04:06:00.487Z,1.25
2022-11-16T04:08:46.038Z,1.17
2022-11-16T04:11:37.928Z,1.08
2022-11-16T04:14:24.409Z,1.05
2022-11-16T04:17:10.373Z,1.06
2022-11-16T04:19:58.287Z,0.79
2022-11-16T04:22:51.743Z,0.59
2022-11-16T04:25:31.006Z,0.80
2022-11-16T04:28:13.661Z,0.70
2022-11-16T04:31:04.973Z,0.64
2022-11-16T04:33:51.294Z,0.85
2022-11-16T04:36:36.895Z,0.65
2022-11-16T04:39:04.574Z,0.87
2022-11-16T04:41:50.184Z,0.90
2022-11-16T04:44:17.343Z,0.66
2022-11-16T04:47:02.625Z,0.76
2022-11-16T04:49:29.232Z,0.63
2022-11-16T04:51:56.094Z,0.77
2022-11-16T04:54:26.353Z,0.75
2022-11-16T04:56:53.078Z,0.91
2022-11-16T04:59:19.807Z,0.96
2022-11-16T05:02:04.981Z,0.87
2022-11-16T05:04:31.571Z,0.88
2022-11-16T05:06:58.477Z,0.90
2022-11-16T05:09:25.391Z,0.94
2022-11-16T05:11:52.278Z,0.90
2022-11-16T05:14:19.028Z,0.86
2022-11-16T05:16:45.840Z,0.88
2022-11-16T05:19:31.178Z,0.74
2022-11-16T05:21:57.737Z,0.85
2022-11-16T05:24:33.573Z,0.87
2022-11-16T05:27:05.317Z,1.01
2022-11-16T05:29:32.947Z,1.01
2022-11-16T05:31:59.796Z,0.96
2022-11-16T05:34:27.429Z,0.91
2022-11-16T05:36:54.754Z,0.79
2022-11-16T05:39:21.786Z,0.82
2022-11-16T05:41:49.107Z,0.85
2022-11-16T05:44:16.259Z,0.93
2022-11-16T05:46:43.995Z,1.02
2022-11-16T05:49:12.141Z,0.97
2022-11-16T05:51:40.972Z,0.75
2022-11-16T05:54:08.209Z,0.82
2022-11-16T05:56:35.531Z,1.05
2022-11-16T05:59:02.922Z,0.92
2022-11-16T06:01:29.680Z,1.11
2022-11-16T06:03:59.069Z,1.23
2022-11-16T06:06:25.794Z,1.32
2022-11-16T06:08:52.569Z,1.27
2022-11-16T06:11:19.462Z,1.20
2022-11-16T06:13:46.303Z,1.42
2022-11-16T06:16:13.172Z,1.53
2022-11-16T06:18:41.611Z,1.79
2022-11-16T06:21:09.287Z,2.00
2022-11-16T06:23:36.018Z,2.66
2022-11-16T06:26:04.178Z,3.83
2022-11-16T06:28:31.181Z,5.10
2022-11-16T06:30:58.118Z,6.23
2022-11-16T06:33:26.195Z,7.60
2022-11-16T06:35:54.370Z,8.79
2022-11-16T06:38:23.399Z,9.86
2022-11-16T06:40:52.157Z,10.76
2022-11-16T06:43:19.544Z,11.58
2022-11-16T06:45:53.711Z,11.80
2022-11-16T06:48:21.164Z,11.89
2022-11-16T06:50:49.824Z,12.69
2022-11-16T06:53:17.588Z,13.26
2022-11-16T06:55:44.496Z,12.18
2022-11-16T06:58:11.460Z,12.41
2022-11-16T07:00:40.940Z,13.74
2022-11-16T07:03:07.674Z,14.49
2022-11-16T07:05:34.429Z,15.36
2022-11-16T07:08:01.107Z,14.95
2022-11-16T07:10:28.246Z,13.82
2022-11-16T07:12:54.936Z,11.80
2022-11-16T07:15:21.969Z,11.72
2022-11-16T07:17:48.708Z,12.03
2022-11-16T07:20:15.783Z,12.98
2022-11-16T07:22:42.478Z,14.45
2022-11-16T07:25:09.558Z,15.71
2022-11-16T07:27:36.228Z,15.63
2022-11-16T07:30:03.911Z,15.26
2022-11-16T07:32:31.228Z,14.31
2022-11-16T07:34:59.452Z,15.11
2022-11-16T07:37:26.557Z,15.88
2022-11-16T07:39:53.672Z,15.33
2022-11-16T07:42:20.384Z,16.96
2022-11-16T07:44:47.104Z,18.07
2022-11-16T07:47:13.721Z,18.97
2022-11-16T07:49:40.425Z,19.70
2022-11-16T07:52:10.371Z,19.12
2022-11-16T07:54:37.443Z,19.06
2022-11-16T07:57:04.380Z,19.32
2022-11-16T07:59:31.106Z,18.00
2022-11-16T08:01:59.499Z,17.88
2022-11-16T08:04:26.404Z,18.69
2022-11-16T08:06:53.195Z,18.07
2022-11-16T08:09:21.780Z,17.85
2022-11-16T08:11:48.603Z,18.21
2022-11-16T08:14:15.779Z,18.04
2022-11-16T08:16:42.594Z,16.32
2022-11-16T08:19:10.312Z,16.95
2022-11-16T08:21:37.106Z,16.14
2022-11-16T08:24:03.901Z,15.25
2022-11-16T08:26:30.823Z,14.89
2022-11-16T08:28:57.719Z,15.09
2022-11-16T08:31:28.745Z,15.28
2022-11-16T08:33:56.742Z,15.47
2022-11-16T08:36:24.021Z,15.01
2022-11-16T08:38:51.731Z,16.02
2022-11-16T08:41:20.038Z,15.61
2022-11-16T08:43:50.883Z,15.29
2022-11-16T08:46:17.844Z,15.20
2022-11-16T08:48:46.119Z,15.00
2022-11-16T08:53:59.592Z,16.50
2022-11-16T08:56:27.410Z,16.10
2022-11-16T08:58:58.416Z,16.52
2022-11-16T09:01:28.060Z,17.45
2022-11-16T09:03:55.141Z,18.16
2022-11-16T09:06:23.711Z,17.69
2022-11-16T09:08:50.841Z,17.89
2022-11-16T09:11:20.192Z,16.77
2022-11-16T09:16:32.604Z,18.01
2022-11-16T09:18:59.301Z,18.36
2022-11-16T09:21:28.475Z,17.95
2022-11-16T09:23:57.464Z,18.00
2022-11-16T09:26:26.313Z,18.92
2022-11-16T09:28:59.114Z,19.59
2022-11-16T09:31:27.592Z,19.73
2022-11-16T09:33:58.465Z,19.97
2022-11-16T09:36:29.194Z,19.07
2022-11-16T09:42:02.544Z,20.75
2022-11-16T09:44:59.951Z,21.02
2022-11-16T09:47:57.629Z,21.30
2022-11-16T09:53:34.501Z,20.23
2022-11-16T09:56:15.498Z,20.81
2022-11-16T09:58:56.403Z,21.08
2022-11-16T10:01:34.441Z,21.82
2022-11-16T10:04:17.731Z,21.87
2022-11-16T10:06:57.336Z,21.26
2022-11-16T10:09:25.951Z,20.61
2022-11-16T10:12:14.159Z,20.02
2022-11-16T10:14:43.819Z,18.23
2022-11-16T10:17:48.248Z,18.87
2022-11-16T10:20:30.720Z,17.81
2022-11-16T10:23:16.094Z,18.43
2022-11-16T10:25:44.773Z,19.28
2022-11-16T10:28:27.789Z,19.32
2022-11-16T10:31:07.089Z,17.96
2022-11-16T10:33:37.217Z,17.93
2022-11-16T10:36:14.837Z,17.63
2022-11-16T10:38:43.427Z,16.49
2022-11-16T10:41:30.627Z,16.89
2022-11-16T10:43:59.450Z,17.10
2022-11-16T10:46:46.917Z,16.71
2022-11-16T10:49:25.317Z,16.92
2022-11-16T10:51:51.954Z,16.14
2022-11-16T10:54:18.789Z,16.73
2022-11-16T10:56:49.731Z,16.42
2022-11-16T10:59:19.691Z,16.60
2022-11-16T11:01:51.572Z,17.39
2022-11-16T11:04:23.025Z,17.67
2022-11-16T11:06:52.891Z,18.27
2022-11-16T11:09:32.283Z,17.47
2022-11-16T11:12:34.523Z,17.91
2022-11-16T11:15:01.187Z,17.26
2022-11-16T11:17:29.910Z,17.13
2022-11-16T11:20:03.901Z,16.03
2022-11-16T11:22:33.107Z,16.66
2022-11-16T11:25:03.343Z,16.82
2022-11-16T11:27:34.845Z,17.58
2022-11-16T11:30:01.955Z,18.00
2022-11-16T11:32:40.645Z,16.77
2022-11-16T11:35:27.098Z,15.48
2022-11-16T11:37:56.378Z,16.39
2022-11-16T11:43:25.319Z,16.31
2022-11-16T11:45:57.958Z,16.52
2022-11-16T11:48:29.884Z,16.85
2022-11-16T11:51:02.977Z,16.87
2022-11-16T11:53:52.085Z,16.73
2022-11-16T11:56:19.552Z,16.59
2022-11-16T11:58:48.118Z,17.31
2022-11-16T12:01:37.681Z,16.93
2022-11-16T12:04:44.931Z,18.26
2022-11-16T12:07:48.792Z,16.99
2022-11-16T12:10:43.060Z,16.66
2022-11-16T12:13:47.366Z,16.00
2022-11-16T12:16:20.375Z,16.38
2022-11-16T12:19:04.882Z,16.23
2022-11-16T12:22:28.158Z,16.11
2022-11-16T12:25:33.091Z,15.88
2022-11-16T12:28:30.999Z,15.85
2022-11-16T12:31:34.956Z,15.39
2022-11-16T12:34:19.946Z,16.13
2022-11-16T12:37:04.808Z,15.53
2022-11-16T12:39:44.550Z,14.93
2022-11-16T12:42:17.269Z,15.57
2022-11-16T12:45:16.316Z,15.39
2022-11-16T12:48:03.826Z,15.97
2022-11-16T12:51:06.708Z,15.35
2022-11-16T12:53:42.298Z,14.99
2022-11-16T12:56:31.552Z,15.06
2022-11-16T12:59:36.702Z,14.66
2022-11-16T13:02:03.313Z,13.63
2022-11-16T13:04:42.503Z,13.50
2022-11-16T13:07:12.449Z,12.91
2022-11-16T13:09:45.987Z,12.54
2022-11-16T13:12:19.795Z,12.82
2022-11-16T13:14:48.776Z,12.72
2022-11-16T13:17:25.568Z,12.43
2022-11-16T13:20:11.711Z,12.44
2022-11-16T13:22:47.073Z,12.46
2022-11-16T13:25:30.652Z,12.45
2022-11-16T13:28:07.855Z,12.78
2022-11-16T13:31:13.279Z,12.71
2022-11-16T13:33:53.587Z,12.95
2022-11-16T13:36:32.656Z,12.84
2022-11-16T13:38:59.431Z,13.10
2022-11-16T13:41:35.812Z,13.33
2022-11-16T13:44:05.928Z,13.29
2022-11-16T13:46:56.915Z,13.02
2022-11-16T13:49:27.034Z,13.15
2022-11-16T13:52:06.837Z,12.79
2022-11-16T13:54:52.829Z,12.75
2022-11-16T13:57:22.192Z,12.63
2022-11-16T13:59:52.714Z,12.74
2022-11-16T14:02:28.743Z,12.66
2022-11-16T14:04:58.442Z,12.07
2022-11-16T14:07:34.871Z,12.13
2022-11-16T14:10:02.587Z,11.87
2022-11-16T14:12:38.533Z,11.91
2022-11-16T14:15:19.180Z,11.54
2022-11-16T14:18:22.724Z,11.40
2022-11-16T14:20:58.450Z,11.38
2022-11-16T14:24:06.463Z,11.12
2022-11-16T14:26:51.574Z,11.10
2022-11-16T14:29:44.691Z,10.74
2022-11-16T14:32:22.550Z,10.57
2022-11-16T14:34:52.405Z,10.56
2022-11-16T14:37:24.474Z,10.46
2022-11-16T14:39:53.662Z,10.45
2022-11-16T14:42:25.001Z,10.35
2022-11-16T14:45:00.976Z,10.26
2022-11-16T14:47:30.684Z,10.27
2022-11-16T14:49:57.685Z,10.14
2022-11-16T14:52:47.627Z,10.40
2022-11-16T14:55:25.816Z,10.27
2022-11-16T14:58:20.456Z,10.02
2022-11-16T15:01:02.310Z,9.98
2022-11-16T15:03:34.454Z,10.04
2022-11-16T15:06:02.972Z,9.86
2022-11-16T15:08:43.355Z,9.93
2022-11-16T15:11:22.494Z,9.88
2022-11-16T15:13:49.898Z,9.80
2022-11-16T15:16:19.378Z,9.98
2022-11-16T15:19:02.793Z,9.69
2022-11-16T15:21:29.606Z,9.73
2022-11-16T15:26:43.386Z,9.58
2022-11-16T15:29:16.891Z,9.58
2022-11-16T15:31:44.226Z,9.58
2022-11-16T15:34:17.427Z,9.48
2022-11-16T15:36:44.129Z,9.50
2022-11-16T15:39:20.205Z,9.41
2022-11-16T15:41:47.156Z,9.53
2022-11-16T15:44:17.850Z,9.41
2022-11-16T15:46:51.874Z,9.37
2022-11-16T15:49:31.313Z,9.43
2022-11-16T15:51:59.684Z,9.62
2022-11-16T15:54:51.649Z,9.53
2022-11-16T15:57:20.313Z,9.60
2022-11-16T15:59:56.357Z,9.51
2022-11-16T16:02:27.607Z,9.29
2022-11-16T16:04:54.341Z,9.26
2022-11-16T16:07:41.644Z,9.21
2022-11-16T16:10:24.571Z,9.22
2022-11-16T16:13:01.684Z,9.20
2022-11-16T16:15:40.208Z,9.06
2022-11-16T16:18:36.732Z,9.08
2022-11-16T16:21:03.501Z,9.03
2022-11-16T16:23:30.136Z,8.97
2022-11-16T16:25:56.769Z,8.83
2022-11-16T16:28:23.380Z,8.98
2022-11-16T16:30:53.191Z,8.93
2022-11-16T16:33:22.048Z,8.79
2022-11-16T16:35:50.941Z,8.78
2022-11-16T16:38:18.237Z,8.66
2022-11-16T16:40:44.900Z,8.68
2022-11-16T16:43:11.755Z,8.70
2022-11-16T16:45:41.890Z,8.63
2022-11-16T16:48:09.717Z,8.64
2022-11-16T16:50:36.930Z,8.60
2022-11-16T16:53:03.767Z,8.54
2022-11-16T16:55:35.723Z,8.50
2022-11-16T16:58:03.857Z,8.59
2022-11-16T17:00:30.736Z,8.52
2022-11-16T17:02:58.548Z,8.45
2022-11-16T17:05:26.357Z,8.38
2022-11-16T17:07:56.414Z,8.42
2022-11-16T17:10:23.689Z,8.34
2022-11-16T17:12:53.628Z,8.33
2022-11-16T17:15:20.977Z,8.30
2022-11-16T17:17:48.051Z,8.35
2022-11-16T17:20:16.393Z,8.36
2022-11-16T17:22:43.443Z,8.30
2022-11-16T17:25:10.630Z,8.33
2022-11-16T17:27:37.343Z,8.30
2022-11-16T17:30:04.636Z,8.19
2022-11-16T17:32:31.532Z,8.18
2022-11-16T17:34:58.193Z,8.17
2022-11-16T17:37:24.827Z,8.13
2022-11-16T17:39:51.577Z,8.10
2022-11-16T17:42:18.246Z,8.20
2022-11-16T17:44:44.927Z,8.18
2022-11-16T17:47:11.752Z,8.21
2022-11-16T17:49:38.427Z,8.27
2022-11-16T17:52:06.353Z,8.22
2022-11-16T17:54:33.079Z,8.07
2022-11-16T17:56:59.895Z,8.13
2022-11-16T17:59:29.400Z,7.90
2022-11-16T18:01:58.055Z,7.85
2022-11-16T18:04:25.354Z,7.99
2022-11-16T18:06:52.657Z,7.97
2022-11-16T18:09:19.407Z,8.05
2022-11-16T18:11:46.197Z,7.91
2022-11-16T18:14:12.795Z,8.01
2022-11-16T18:16:42.454Z,8.01
2022-11-16T18:19:10.131Z,8.02
2022-11-16T18:21:41.417Z,7.98
2022-11-16T18:24:08.810Z,8.07
2022-11-16T18:26:36.178Z,7.98
2022-11-16T18:29:03.004Z,8.06
2022-11-16T18:31:32.850Z,8.02
2022-11-16T18:34:01.080Z,8.08
2022-11-16T18:36:28.033Z,8.12
2022-11-16T18:38:54.855Z,7.99
2022-11-16T18:41:25.158Z,7.89
2022-11-16T18:43:54.556Z,7.68
2022-11-16T18:46:25.708Z,7.69
2022-11-16T18:48:53.185Z,7.61
2022-11-16T18:51:21.790Z,7.60
2022-11-16T18:53:49.256Z,7.63
2022-11-16T18:56:16.744Z,7.35
2022-11-16T18:58:50.378Z,7.03
2022-11-16T19:01:20.791Z,7.09
2022-11-16T19:03:47.733Z,6.80
2022-11-16T19:06:15.662Z,6.82
2022-11-16T19:08:46.858Z,6.66
2022-11-16T19:11:16.981Z,6.52
2022-11-16T19:13:44.637Z,6.45
2022-11-16T19:16:13.642Z,6.55
2022-11-16T19:18:41.208Z,6.68
2022-11-16T19:21:09.141Z,6.52
2022-11-16T19:23:39.944Z,6.61
2022-11-16T19:26:07.367Z,6.86
2022-11-16T19:28:38.340Z,6.87
2022-11-16T19:31:09.853Z,7.05
2022-11-16T19:33:36.975Z,6.96
2022-11-16T19:36:15.005Z,7.05
2022-11-16T19:38:42.031Z,7.17
2022-11-16T19:41:11.121Z,6.97
2022-11-16T19:43:38.894Z,6.72
2022-11-16T19:46:16.616Z,6.53
2022-11-16T19:48:45.021Z,6.67
2022-11-16T19:51:14.708Z,6.41
2022-11-16T19:53:41.469Z,6.23
2022-11-16T19:56:11.140Z,6.26
2022-11-16T19:58:39.089Z,6.11
2022-11-16T20:01:13.055Z,6.40
2022-11-16T20:03:43.200Z,6.54
2022-11-16T20:06:20.753Z,6.30
2022-11-16T20:08:56.099Z,6.32
2022-11-16T20:11:25.236Z,6.01
2022-11-16T20:13:53.904Z,6.18
2022-11-16T20:16:23.442Z,6.31
2022-11-16T20:18:51.284Z,6.08
2022-11-16T20:21:35.924Z,6.30
2022-11-16T20:24:06.712Z,6.08
2022-11-16T20:26:35.178Z,6.18
2022-11-16T20:29:02.043Z,6.28
2022-11-16T20:31:30.789Z,6.08
2022-11-16T20:33:59.553Z,6.25
2022-11-16T20:36:29.485Z,6.52
2022-11-16T20:38:57.669Z,6.33
2022-11-16T20:41:26.466Z,6.72
2022-11-16T20:43:55.162Z,6.76
2022-11-16T20:46:23.942Z,6.87
2022-11-16T20:48:51.020Z,6.82
2022-11-16T20:51:19.773Z,6.56
2022-11-16T20:53:48.215Z,6.35
2022-11-16T20:56:16.505Z,6.71
2022-11-16T20:58:43.634Z,6.79
2022-11-16T21:01:13.453Z,6.70
2022-11-16T21:03:40.745Z,6.99
2022-11-16T21:06:08.830Z,6.70
2022-11-16T21:08:36.857Z,6.81
2022-11-16T21:11:12.156Z,6.45
2022-11-16T21:13:57.921Z,6.70
2022-11-16T21:16:24.976Z,6.62
2022-11-16T21:18:51.676Z,6.68
2022-11-16T21:21:18.328Z,6.47
2022-11-16T21:23:51.306Z,6.43
2022-11-16T21:26:23.443Z,6.55
2022-11-16T21:28:50.470Z,6.62
2022-11-16T21:31:19.797Z,6.45
2022-11-16T21:33:49.669Z,6.68
2022-11-16T21:36:18.959Z,6.05
2022-11-16T21:38:46.448Z,6.26
2022-11-16T21:41:15.205Z,6.29
2022-11-16T21:43:41.931Z,6.30
2022-11-16T21:46:12.071Z,6.51
2022-11-16T21:48:39.267Z,6.34
2022-11-16T21:51:14.470Z,6.29
2022-11-16T21:53:41.251Z,6.47
2022-11-16T21:56:12.515Z,6.35
2022-11-16T21:58:40.228Z,6.00
2022-11-16T22:01:07.309Z,6.14
2022-11-16T22:03:34.587Z,5.99
2022-11-16T22:06:22.312Z,6.07
2022-11-16T22:08:49.280Z,6.18
2022-11-16T22:11:16.485Z,6.05
2022-11-16T22:13:43.964Z,6.22
2022-11-16T22:16:15.299Z,6.28
2022-11-16T22:18:42.172Z,6.34
2022-11-16T22:21:10.254Z,6.37
2022-11-16T22:23:38.108Z,6.17
2022-11-16T22:26:07.529Z,6.33
2022-11-16T22:28:35.670Z,6.40
2022-11-16T22:31:04.316Z,6.66
2022-11-16T22:33:32.064Z,6.32
2022-11-16T22:35:59.025Z,6.40
2022-11-16T22:38:25.755Z,6.11
2022-11-16T22:40:54.335Z,6.24
2022-11-16T22:43:23.007Z,6.51
2022-11-16T22:45:50.526Z,6.54
2022-11-16T22:48:17.706Z,6.87
2022-11-16T22:50:44.452Z,7.46
2022-11-16T22:53:11.247Z,8.08
2022-11-16T22:55:38.976Z,8.44
2022-11-16T22:58:06.098Z,8.69
2022-11-16T23:00:38.958Z,8.73
2022-11-16T23:03:08.646Z,8.81
2022-11-16T23:05:35.419Z,8.84
2022-11-16T23:08:02.020Z,8.90
2022-11-16T23:10:29.041Z,8.89
2022-11-16T23:13:14.284Z,8.96
2022-11-16T23:15:50.021Z,8.94
2022-11-16T23:18:17.679Z,9.03
2022-11-16T23:21:02.767Z,9.00
2022-11-16T23:23:49.241Z,9.02
2022-11-16T23:26:42.170Z,8.95
2022-11-16T23:29:10.632Z,9.06
2022-11-16T23:31:38.165Z,9.17
2022-11-16T23:34:05.317Z,9.03
2022-11-16T23:36:32.029Z,9.05
2022-11-16T23:38:58.739Z,9.05
2022-11-16T23:41:43.850Z,9.09
2022-11-16T23:44:10.570Z,9.14
2022-11-16T23:46:38.502Z,9.25
2022-11-16T23:49:05.274Z,9.27
2022-11-16T23:51:31.924Z,9.22
2022-11-16T23:53:58.635Z,9.23
2022-11-16T23:56:25.374Z,9.24
2022-11-16T23:58:56.343Z,9.24
